Balsamo, Brazil
Current Conditions -  °F | °C
As of 5:00 PM on Thursday 23 Oct 2014 (Local Time) from SBCG Reporting Station
Thunderstorm Thunderstorm  
Wind Chill: 84°   Ceiling: Unl
Heat Index: 86°   Visibility: 6mi
Dew Point: 64°   Wind: 5mph
Humidity: 51%   Direction: 170°S
Pressure: 29.85"   Gusts: NA
Location:  20.17°S, 54.02°W
Report Text: SBCG 232000Z 17004KT 9999 TS VCSH SCT045 FEW050CB 29/18 Q1011
Loading
Personal Weather Stations






























Interactive Weather Map
Tropical Storm Tracking
New forecast layout! Learn more

10-Day Weather Forecast

Advertisements
Track Severe Weather on mobile